createdAt,value
2019-02-27T00:00:15.116Z,40.40
2019-02-27T00:02:43.608Z,45.73
2019-02-27T00:05:12.084Z,44.70
2019-02-27T00:07:40.574Z,50.40
2019-02-27T00:10:09.059Z,33.05
2019-02-27T00:12:37.570Z,27.75
2019-02-27T00:15:07.155Z,29.92
2019-02-27T00:17:35.651Z,25.12
2019-02-27T00:20:05.473Z,30.48
2019-02-27T00:22:33.935Z,31.70
2019-02-27T00:25:03.461Z,35.10
2019-02-27T00:27:32.590Z,32.03
2019-02-27T00:30:04.411Z,30.60
2019-02-27T00:32:31.295Z,63.50
2019-02-27T00:34:59.789Z,46.60
2019-02-27T00:37:28.274Z,53.28
2019-02-27T00:39:56.753Z,61.05
2019-02-27T00:42:33.243Z,93.30
2019-02-27T00:44:55.454Z,89.42
2019-02-27T00:47:24.149Z,59.80
2019-02-27T00:49:52.634Z,71.33
2019-02-27T00:52:21.130Z,41.45
2019-02-27T00:54:49.617Z,36.50
2019-02-27T00:57:20.432Z,30.80
2019-02-27T00:59:48.424Z,37.65
2019-02-27T01:02:19.996Z,32.30
2019-02-27T01:04:47.135Z,25.15
2019-02-27T01:07:20.190Z,24.85
2019-02-27T01:09:46.328Z,22.90
2019-02-27T16:28:11.901Z,34.23
2019-02-27T16:30:40.182Z,38.70
2019-02-27T16:33:08.704Z,41.28
2019-02-27T16:35:49.349Z,32.95
2019-02-27T16:38:17.844Z,68.37
2019-02-27T16:40:52.021Z,59.93
2019-02-27T16:43:16.557Z,64.20
2019-02-27T16:45:45.107Z,79.55
2019-02-27T16:48:13.604Z,62.35
2019-02-27T16:50:42.083Z,95.10
2019-02-27T16:53:15.723Z,51.42
2019-02-27T16:55:40.810Z,42.58
2019-02-27T16:58:09.296Z,25.88
2019-02-27T17:00:38.514Z,37.10
2019-02-27T17:03:07.011Z,73.50
2019-02-27T17:05:35.534Z,72.10
2019-02-27T17:08:04.083Z,97.42
2019-02-27T17:10:37.356Z,142.70
2019-02-27T17:13:05.852Z,62.93
2019-02-27T17:15:35.865Z,43.63
2019-02-27T17:18:04.749Z,196.22
2019-02-27T17:20:33.329Z,211.85
2019-02-27T17:23:07.532Z,136.30
2019-02-27T17:25:32.083Z,184.25
2019-02-27T17:28:00.596Z,154.68
2019-02-27T17:30:38.052Z,46.45
2019-02-27T17:33:06.862Z,29.80
2019-02-27T17:35:35.404Z,81.47
2019-02-27T17:38:03.899Z,151.78
2019-02-27T17:40:36.213Z,188.45
2019-02-27T17:43:02.608Z,158.75
2019-02-27T17:45:31.103Z,93.33
2019-02-27T17:47:59.594Z,76.15
2019-02-27T17:50:30.943Z,68.52
2019-02-27T17:52:58.334Z,47.95
2019-02-27T17:55:26.875Z,32.75
2019-02-27T17:57:58.362Z,49.13
2019-02-27T18:00:31.374Z,60.98
2019-02-27T18:02:59.860Z,55.45
2019-02-27T18:05:28.349Z,55.23
2019-02-27T18:07:56.837Z,51.92
2019-02-27T18:10:25.331Z,52.90
2019-02-27T18:12:53.838Z,46.75
2019-02-27T18:15:23.410Z,46.92
2019-02-27T18:17:51.901Z,35.98
2019-02-27T18:20:24.163Z,24.47
2019-02-27T18:22:50.668Z,20.68
2019-02-27T18:25:19.180Z,21.87
2019-02-27T18:27:48.054Z,20.27
2019-02-27T18:30:22.522Z,28.12
2019-02-27T18:32:51.000Z,32.23
2019-02-27T18:35:19.892Z,28.10
2019-02-27T18:37:53.221Z,24.15
2019-02-27T18:40:19.193Z,25.08
2019-02-27T18:42:47.697Z,27.73
2019-02-27T18:45:19.294Z,32.35
2019-02-27T18:47:47.781Z,29.60
2019-02-27T18:50:16.583Z,31.65
2019-02-27T18:52:45.112Z,41.53
2019-02-27T18:55:16.840Z,53.08
2019-02-27T18:57:47.198Z,39.80
2019-02-27T19:00:21.284Z,33.33
2019-02-27T19:02:52.030Z,26.55
2019-02-27T19:05:21.472Z,30.70
2019-02-27T19:07:53.867Z,34.60
2019-02-27T19:10:20.171Z,28.87
2019-02-27T19:12:48.657Z,26.12
2019-02-27T19:15:22.010Z,35.78
2019-02-27T19:17:50.125Z,37.08
2019-02-27T19:20:24.883Z,39.18
2019-02-27T19:22:51.683Z,28.62
2019-02-27T19:25:20.235Z,30.30
2019-02-27T19:27:49.877Z,28.12
2019-02-27T19:30:19.478Z,22.98
2019-02-27T19:32:48.675Z,27.07
2019-02-27T19:35:21.282Z,26.55
2019-02-27T19:37:47.678Z,23.22
2019-02-27T19:40:18.897Z,23.40
2019-02-27T19:42:51.807Z,19.60
2019-02-27T19:45:20.319Z,24.57
2019-02-27T19:47:49.609Z,19.07
2019-02-27T19:50:19.218Z,18.75
2019-02-27T19:52:47.720Z,17.85
2019-02-27T19:55:16.205Z,15.93
2019-02-27T19:57:44.696Z,20.70
2019-02-27T20:00:16.311Z,21.90
2019-02-27T20:02:44.813Z,24.65
2019-02-27T20:05:13.407Z,27.80
2019-02-27T20:07:41.895Z,21.50
2019-02-27T20:10:12.678Z,19.48
2019-02-27T20:12:41.164Z,18.67
2019-02-27T20:15:16.632Z,14.68
2019-02-27T20:17:45.127Z,17.48
2019-02-27T20:20:15.582Z,15.18
2019-02-27T20:22:44.075Z,16.95
2019-02-27T20:25:18.014Z,20.37
2019-02-27T20:27:46.648Z,17.67
2019-02-27T20:30:19.725Z,15.90
2019-02-27T20:32:48.814Z,16.73
2019-02-27T20:35:20.869Z,13.35
2019-02-27T20:37:47.505Z,15.08
2019-02-27T20:40:19.897Z,10.98
2019-02-27T20:42:50.782Z,12.90
2019-02-27T20:45:20.745Z,10.80
2019-02-27T20:47:49.231Z,14.25
2019-02-27T20:50:34.488Z,10.32
2019-02-27T20:52:56.693Z,9.50
2019-02-27T20:55:25.172Z,8.93
2019-02-27T20:57:53.666Z,12.80
2019-02-27T21:00:22.445Z,9.58
2019-02-27T21:02:53.527Z,13.55
2019-02-27T21:05:21.738Z,16.02
2019-02-27T21:07:50.231Z,12.07
2019-02-27T21:10:21.472Z,13.18
2019-02-27T21:12:54.044Z,9.63
2019-02-27T21:15:20.163Z,9.83
2019-02-27T21:17:48.706Z,10.23
2019-02-27T21:20:17.263Z,12.90
2019-02-27T21:22:45.745Z,11.70
2019-02-27T21:25:14.907Z,8.05
2019-02-27T21:27:44.211Z,9.80
2019-02-27T21:30:19.523Z,11.57
2019-02-27T21:32:48.004Z,11.55
2019-02-27T21:35:16.491Z,12.30
2019-02-27T21:37:45.748Z,9.63
2019-02-27T21:40:15.731Z,10.15
2019-02-27T21:42:44.214Z,8.93
2019-02-27T21:45:18.039Z,11.35
2019-02-27T21:47:51.176Z,12.35
2019-02-27T21:50:19.197Z,12.98
2019-02-27T21:52:47.672Z,12.20
2019-02-27T21:55:16.198Z,11.65
2019-02-27T21:57:44.682Z,13.88
2019-02-27T22:00:24.757Z,12.07
2019-02-27T22:02:55.498Z,11.50
2019-02-27T22:05:24.015Z,12.03
2019-02-27T22:07:52.483Z,14.75
2019-02-27T22:10:21.015Z,12.07
2019-02-27T22:12:49.494Z,12.63
2019-02-27T22:15:30.765Z,23.38
2019-02-27T22:17:59.346Z,13.18
2019-02-27T22:20:27.828Z,18.80
2019-02-27T22:22:56.314Z,14.83
2019-02-27T22:25:30.185Z,15.30
2019-02-27T22:27:55.001Z,18.60
2019-02-27T22:30:23.791Z,17.95
2019-02-27T22:32:52.273Z,17.07
2019-02-27T22:35:20.769Z,23.18
2019-02-27T22:37:52.347Z,27.85
2019-02-27T22:40:20.659Z,28.40
2019-02-27T22:42:49.335Z,23.35
2019-02-27T22:45:18.818Z,43.70
2019-02-27T22:47:47.307Z,34.43
2019-02-27T22:50:17.216Z,34.53
2019-02-27T22:52:45.722Z,31.15
2019-02-27T22:55:14.209Z,32.33
2019-02-27T22:57:42.700Z,42.83
2019-02-27T23:00:21.763Z,46.23
2019-02-27T23:02:52.694Z,59.35
2019-02-27T23:05:20.466Z,62.62
2019-02-27T23:07:51.639Z,53.08
2019-02-27T23:10:19.209Z,52.23
2019-02-27T23:12:47.760Z,69.15
2019-02-27T23:15:16.285Z,129.80
2019-02-27T23:17:44.772Z,69.47
2019-02-27T23:20:13.262Z,142.13
2019-02-27T23:22:42.005Z,85.57
2019-02-27T23:25:10.610Z,81.50
2019-02-27T23:27:39.102Z,39.42
2019-02-27T23:30:14.865Z,73.37
2019-02-27T23:32:40.660Z,73.25
2019-02-27T23:35:09.149Z,70.35
2019-02-27T23:37:37.639Z,36.55
2019-02-27T23:40:07.224Z,32.65
2019-02-27T23:42:35.708Z,44.53
2019-02-27T23:45:05.391Z,23.75
2019-02-27T23:47:33.885Z,23.07
2019-02-27T23:50:02.374Z,24.32
2019-02-27T23:52:30.873Z,20.97
2019-02-27T23:54:59.357Z,17.12
2019-02-27T23:57:27.837Z,13.38
2019-02-27T23:59:56.374Z,16.70
